Time;durP1;ratioP1;P1;durP2;ratioP2;P2;SDS_P1;SDS_P2;PMS_P1;PMS_P2;Temp;Humidity;BMP_temperature;BMP_pressure;BME280_temperature;BME280_humidity;BME280_pressure;Samples;Min_cycle;Max_cycle;Signal;HPM_P1;HPM_P2
2023/10/02 04:56:21;;;;;;;;;;;7.90;99.90;;;;;;5372806;22;19929;-74
2023/10/02 04:58:49;;;;;;;;;;;7.80;99.90;;;;;;5055413;28;19924;-74
2023/10/02 05:01:24;;;;;;;;;;;7.90;99.90;;;;;;5054933;28;19931;-72
2023/10/02 05:03:52;;;;;;;;;;;7.80;99.90;;;;;;5054502;28;19920;-73
2023/10/02 05:06:39;;;;;;;;;;;7.80;99.90;;;;;;5054023;28;19924;-74
2023/10/02 05:11:55;;;;;;;;;;;7.80;99.90;;;;;;5054334;28;19927;-73
2023/10/02 05:14:28;;;;;;;;;;;7.80;99.90;;;;;;5054156;28;19925;-74
2023/10/02 05:17:16;;;;;;;;;;;7.80;99.90;;;;;;5054364;28;19943;-74
2023/10/02 05:20:01;;;;;;;;;;;7.80;99.90;;;;;;5054308;28;20003;-74
2023/10/02 05:22:27;;;;;;;;;;;7.80;99.90;;;;;;5054710;28;19935;-74
2023/10/02 05:24:58;;;;;;;;;;;7.80;99.90;;;;;;5054152;28;19967;-75
2023/10/02 05:27:30;;;;;;;;;;;7.80;99.90;;;;;;5054282;28;20337;-75
2023/10/02 05:29:59;;;;;;;;;;;7.80;99.90;;;;;;5054066;28;20318;-74
2023/10/02 05:32:29;;;;;;;;;;;7.80;99.90;;;;;;5053751;28;19979;-74
2023/10/02 05:35:05;;;;;;;;;;;7.90;99.90;;;;;;5053966;28;19991;-74
2023/10/02 05:37:32;;;;;;;;;;;7.90;99.90;;;;;;5054081;28;19929;-74
2023/10/02 05:43:17;;;;;;;;;;;8.00;99.90;;;;;;5054119;28;20011;-74
2023/10/02 05:45:48;;;;;;;;;;;8.00;99.90;;;;;;5053682;28;20374;-73
2023/10/02 05:48:15;;;;;;;;;;;8.20;99.90;;;;;;5054069;28;19925;-74
2023/10/02 05:50:47;;;;;;;;;;;8.30;99.90;;;;;;5053915;28;19932;-73
2023/10/02 05:53:15;;;;;;;;;;;8.40;99.90;;;;;;5053625;28;20405;-73
2023/10/02 05:58:31;;;;;;;;;;;8.70;99.90;;;;;;5053954;28;19928;-73
2023/10/02 06:01:01;;;;;;;;;;;9.00;99.90;;;;;;5054243;28;19929;-73
2023/10/02 06:03:34;;;;;;;;;;;9.50;99.90;;;;;;5053732;28;19931;-73
2023/10/02 06:06:15;;;;;;;;;;;10.20;99.90;;;;;;5053676;28;19967;-73
2023/10/02 06:08:42;;;;;;;;;;;10.70;99.90;;;;;;5053738;28;19924;-73
2023/10/02 06:14:14;;;;;;;;;;;11.70;99.90;;;;;;5112459;27;19918;-70
2023/10/02 06:16:41;;;;;;;;;;;12.20;99.90;;;;;;5112088;28;19924;-71
2023/10/02 06:19:13;;;;;;;;;;;12.50;99.90;;;;;;5112834;28;20015;-72
2023/10/02 06:21:45;;;;;;;;;;;12.70;99.90;;;;;;5112850;28;20365;-72
2023/10/02 06:24:13;;;;;;;;;;;13.10;99.90;;;;;;5112979;28;19959;-72
2023/10/02 06:26:49;;;;;;;;;;;13.70;99.90;;;;;;5112739;28;19945;-72
2023/10/02 06:29:22;;;;;;;;;;;14.50;99.90;;;;;;5112453;28;19924;-72
2023/10/02 06:31:51;;;;;;;;;;;15.40;99.90;;;;;;5112280;28;19924;-72
2023/10/02 06:34:18;;;;;;;;;;;16.10;99.90;;;;;;5112554;28;19924;-72
2023/10/02 06:36:48;;;;;;;;;;;16.30;99.90;;;;;;5112682;28;19950;-72
2023/10/02 06:39:17;;;;;;;;;;;16.30;99.90;;;;;;5112731;28;19928;-73
2023/10/02 06:41:45;;;;;;;;;;;16.40;99.90;;;;;;5112280;28;19924;-73
2023/10/02 06:44:20;;;;;;;;;;;16.70;99.90;;;;;;5111821;28;19977;-72
2023/10/02 06:46:55;;;;;;;;;;;17.10;99.90;;;;;;5112207;28;19935;-72
2023/10/02 06:49:23;;;;;;;;;;;17.70;99.90;;;;;;5112843;28;19943;-72
2023/10/02 06:51:50;;;;;;;;;;;18.60;99.90;;;;;;5112072;28;19924;-72
2023/10/02 06:54:18;;;;;;;;;;;19.70;99.90;;;;;;5111126;28;20354;-72
2023/10/02 06:56:44;;;;;;;;;;;20.70;99.90;;;;;;5111007;28;19927;-72
2023/10/02 06:59:11;;;;;;;;;;;21.50;99.90;;;;;;5110710;28;20482;-72
2023/10/02 07:02:01;;;;;;;;;;;22.10;99.90;;;;;;5110670;28;20373;-72
2023/10/02 07:04:29;;;;;;;;;;;22.60;99.90;;;;;;5110500;28;19947;-72
2023/10/02 07:07:02;;;;;;;;;;;23.10;99.90;;;;;;5110942;28;19930;-72
2023/10/02 07:09:34;;;;;;;;;;;23.10;98.40;;;;;;5110973;28;19996;-73
2023/10/02 07:12:08;;;;;;;;;;;23.10;98.70;;;;;;5113822;28;20368;-73
2023/10/02 07:14:36;;;;;;;;;;;23.10;99.00;;;;;;5130863;28;19924;-73
2023/10/02 07:17:11;;;;;;;;;;;23.00;93.10;;;;;;5131369;28;19924;-73
2023/10/02 07:19:46;;;;;;;;;;;23.00;99.90;;;;;;5131371;28;19924;-72
2023/10/02 07:22:16;;;;;;;;;;;23.10;99.90;;;;;;5131042;28;20032;-72
2023/10/02 07:24:46;;;;;;;;;;;23.40;98.50;;;;;;5121067;28;20026;-72
2023/10/02 07:27:23;;;;;;;;;;;23.70;96.40;;;;;;5117278;28;19924;-72
2023/10/02 07:29:52;;;;;;;;;;;24.10;93.10;;;;;;5117468;28;20030;-72
2023/10/02 07:32:19;;;;;;;;;;;24.50;79.10;;;;;;5117256;28;19973;-73
2023/10/02 07:34:47;;;;;;;;;;;25.00;76.70;;;;;;5117567;28;19924;-73
2023/10/02 07:37:16;;;;;;;;;;;25.50;65.30;;;;;;5117467;28;19928;-72
2023/10/02 07:39:42;;;;;;;;;;;26.00;63.30;;;;;;5117179;28;19970;-72
2023/10/02 07:42:10;;;;;;;;;;;26.50;59.60;;;;;;5116993;28;19930;-72
2023/10/02 07:44:37;;;;;;;;;;;27.10;55.30;;;;;;5116842;28;19947;-72
2023/10/02 07:47:10;;;;;;;;;;;27.60;50.20;;;;;;5116889;28;19969;-73
2023/10/02 07:49:38;;;;;;;;;;;28.10;48.20;;;;;;5117030;28;19923;-73
2023/10/02 07:52:08;;;;;;;;;;;28.50;46.50;;;;;;5116557;28;19972;-73
2023/10/02 07:54:44;;;;;;;;;;;28.80;43.70;;;;;;5116705;28;19923;-73
2023/10/02 07:57:13;;;;;;;;;;;28.90;43.10;;;;;;5116863;28;19924;-73
2023/10/02 07:59:40;;;;;;;;;;;29.10;42.50;;;;;;5117752;28;19923;-73
2023/10/02 08:02:21;;;;;;;;;;;29.20;41.70;;;;;;5116500;28;19974;-73
2023/10/02 08:04:48;;;;;;;;;;;29.30;40.20;;;;;;5116462;28;19979;-73
2023/10/02 08:07:17;;;;;;;;;;;29.10;38.70;;;;;;5116410;28;19924;-73
2023/10/02 08:09:47;;;;;;;;;;;28.90;40.30;;;;;;5116577;28;19923;-73
2023/10/02 08:12:29;;;;;;;;;;;28.60;42.20;;;;;;5116018;28;20377;-73
2023/10/02 08:14:57;;;;;;;;;;;28.30;43.80;;;;;;5116363;28;19924;-73
2023/10/02 08:17:27;;;;;;;;;;;27.70;44.70;;;;;;5116492;28;19924;-73
2023/10/02 08:19:58;;;;;;;;;;;26.70;48.50;;;;;;5116513;28;20018;-73
2023/10/02 08:22:35;;;;;;;;;;;25.70;56.90;;;;;;5115942;28;19919;-73
2023/10/02 08:25:02;;;;;;;;;;;24.90;73.00;;;;;;5116374;28;19923;-73
2023/10/02 08:27:32;;;;;;;;;;;24.10;91.60;;;;;;5116006;28;19924;-73
2023/10/02 08:30:00;;;;;;;;;;;23.40;99.90;;;;;;5116060;28;19932;-72
2023/10/02 08:32:30;;;;;;;;;;;22.90;99.90;;;;;;5116044;27;19931;-72
2023/10/02 08:34:57;;;;;;;;;;;22.30;99.90;;;;;;5115697;28;19924;-72
2023/10/02 08:37:25;;;;;;;;;;;21.90;99.90;;;;;;5115364;28;19930;-72
2023/10/02 08:39:52;;;;;;;;;;;21.50;99.90;;;;;;5116091;28;19924;-72
2023/10/02 08:42:24;;;;;;;;;;;21.20;99.90;;;;;;5116710;28;19923;-72
2023/10/02 08:44:54;;;;;;;;;;;20.90;99.90;;;;;;5116148;28;19971;-72
2023/10/02 08:47:25;;;;;;;;;;;20.70;99.90;;;;;;5116288;28;19924;-72
2023/10/02 08:50:03;;;;;;;;;;;20.40;99.90;;;;;;5115914;28;19969;-72
2023/10/02 08:52:38;;;;;;;;;;;20.30;99.90;;;;;;5115971;28;19923;-74
2023/10/02 08:55:35;;;;;;;;;;;20.10;99.90;;;;;;5116159;28;19930;-74
2023/10/02 08:58:15;;;;;;;;;;;20.10;99.90;;;;;;5115854;28;19924;-74
2023/10/02 09:01:01;;;;;;;;;;;20.00;99.90;;;;;;5115792;28;19923;-74
2023/10/02 09:03:27;;;;;;;;;;;20.10;99.90;;;;;;5115821;28;19965;-74
2023/10/02 09:06:24;;;;;;;;;;;20.10;99.90;;;;;;5115588;28;19935;-74
2023/10/02 09:09:13;;;;;;;;;;;20.10;99.90;;;;;;5115204;28;19959;-73
2023/10/02 09:11:34;;;;;;;;;;;20.00;99.90;;;;;;5114904;28;19924;-72
2023/10/02 09:14:16;;;;;;;;;;;19.90;99.90;;;;;;5116211;28;20018;-72
2023/10/02 09:16:45;;;;;;;;;;;19.80;99.90;;;;;;5115587;28;19923;-72
2023/10/02 09:21:53;;;;;;;;;;;20.00;99.90;;;;;;5115731;28;19920;-73
2023/10/02 09:24:23;;;;;;;;;;;20.00;99.90;;;;;;5121646;28;19930;-72
2023/10/02 09:26:49;;;;;;;;;;;20.00;99.90;;;;;;5129696;28;19953;-72
2023/10/02 09:29:16;;;;;;;;;;;20.00;99.90;;;;;;5131091;28;19956;-72
2023/10/02 09:31:43;;;;;;;;;;;20.00;99.90;;;;;;5120967;28;20365;-72
2023/10/02 09:34:16;;;;;;;;;;;19.90;99.90;;;;;;5115251;28;20269;-73
2023/10/02 09:36:52;;;;;;;;;;;19.80;99.90;;;;;;5115086;28;19924;-73
2023/10/02 09:39:36;;;;;;;;;;;19.70;99.90;;;;;;5114887;28;19939;-72
2023/10/02 09:42:07;;;;;;;;;;;19.70;99.90;;;;;;5114834;28;19931;-72
2023/10/02 09:44:40;;;;;;;;;;;19.60;99.90;;;;;;5114914;28;19959;-73
2023/10/02 09:47:07;;;;;;;;;;;19.70;99.90;;;;;;5114743;28;19958;-72
2023/10/02 09:49:36;;;;;;;;;;;19.70;99.90;;;;;;5114986;28;19931;-73
2023/10/02 09:52:15;;;;;;;;;;;19.80;99.90;;;;;;5114416;28;20392;-73
2023/10/02 09:54:47;;;;;;;;;;;19.80;99.90;;;;;;5114678;28;19931;-73
2023/10/02 09:57:17;;;;;;;;;;;19.80;99.90;;;;;;5114626;28;19931;-73
2023/10/02 09:59:46;;;;;;;;;;;19.80;99.90;;;;;;5114832;28;19931;-72
2023/10/02 10:08:18;;;;;;;;;;;20.00;99.90;;;;;;5115109;28;20273;-75
2023/10/02 10:10:48;;;;;;;;;;;20.00;99.90;;;;;;5114838;28;19923;-75
2023/10/02 10:13:27;;;;;;;;;;;20.10;99.90;;;;;;5114443;28;19924;-74
2023/10/02 10:16:07;;;;;;;;;;;20.10;99.90;;;;;;5114642;28;19927;-74
2023/10/02 10:21:56;;;;;;;;;;;20.30;99.90;;;;;;5114249;28;19934;-74
2023/10/02 10:24:32;;;;;;;;;;;20.40;99.90;;;;;;5114906;28;20023;-74
2023/10/02 10:26:59;;;;;;;;;;;20.50;99.90;;;;;;5114711;28;19923;-73
2023/10/02 10:29:41;;;;;;;;;;;20.60;99.90;;;;;;5114696;28;19930;-75
2023/10/02 10:32:23;;;;;;;;;;;20.60;99.90;;;;;;5114405;28;19924;-75
2023/10/02 10:35:11;;;;;;;;;;;20.60;99.90;;;;;;5114033;28;20277;-75
2023/10/02 10:37:41;;;;;;;;;;;20.60;99.90;;;;;;5114108;28;19928;-75
2023/10/02 10:40:43;;;;;;;;;;;20.70;99.90;;;;;;5114255;28;20368;-71
2023/10/02 10:42:57;;;;;;;;;;;20.70;99.90;;;;;;5114003;28;20303;-74
2023/10/02 10:45:25;;;;;;;;;;;20.70;99.90;;;;;;5114108;28;20018;-74
2023/10/02 10:47:53;;;;;;;;;;;20.90;99.90;;;;;;5114627;28;19924;-74
2023/10/02 10:50:30;;;;;;;;;;;21.00;99.90;;;;;;5118122;28;19924;-74
2023/10/02 10:53:25;;;;;;;;;;;21.10;99.90;;;;;;5117013;28;20292;-74
2023/10/02 10:55:54;;;;;;;;;;;21.10;99.90;;;;;;5113531;28;20353;-75
2023/10/02 10:58:31;;;;;;;;;;;21.20;99.90;;;;;;5114030;28;19930;-74
2023/10/02 11:00:59;;;;;;;;;;;21.20;99.90;;;;;;5118040;28;19976;-74
2023/10/02 11:03:27;;;;;;;;;;;21.20;99.90;;;;;;5117486;28;20273;-75
2023/10/02 11:06:01;;;;;;;;;;;21.10;99.90;;;;;;5117707;28;19950;-75
2023/10/02 11:08:29;;;;;;;;;;;21.20;99.90;;;;;;5117444;28;20396;-76
2023/10/02 11:11:00;;;;;;;;;;;21.20;99.90;;;;;;5068641;22;19932;-73
2023/10/02 11:13:27;;;;;;;;;;;21.20;99.90;;;;;;5037121;28;19936;-74
2023/10/02 11:15:59;;;;;;;;;;;21.20;99.90;;;;;;5037068;28;19929;-74
2023/10/02 11:18:28;;;;;;;;;;;21.30;99.90;;;;;;5037132;28;19964;-74
2023/10/02 11:20:57;;;;;;;;;;;21.30;99.90;;;;;;5037711;28;19932;-73
2023/10/02 11:23:37;;;;;;;;;;;21.30;99.90;;;;;;5036903;28;19932;-73
2023/10/02 11:26:10;;;;;;;;;;;21.40;99.90;;;;;;5036912;28;19925;-73
2023/10/02 11:28:37;;;;;;;;;;;21.40;99.90;;;;;;5036796;28;19929;-74
2023/10/02 11:31:29;;;;;;;;;;;21.50;99.90;;;;;;5036396;28;19932;-74
2023/10/02 11:34:01;;;;;;;;;;;21.60;99.90;;;;;;5036619;28;20020;-74
2023/10/02 11:36:28;;;;;;;;;;;21.60;99.90;;;;;;5036593;28;19929;-74
2023/10/02 11:38:55;;;;;;;;;;;21.60;99.90;;;;;;5036542;28;19932;-74
2023/10/02 11:41:22;;;;;;;;;;;21.70;99.90;;;;;;5036552;28;19925;-74
2023/10/02 11:43:49;;;;;;;;;;;21.70;99.90;;;;;;5036502;28;19925;-74
2023/10/02 11:46:16;;;;;;;;;;;21.70;99.90;;;;;;5036467;28;19979;-75
2023/10/02 11:48:42;;;;;;;;;;;21.70;99.90;;;;;;5036159;28;20359;-75
2023/10/02 11:51:11;;;;;;;;;;;21.80;99.90;;;;;;5036010;28;20279;-74
2023/10/02 11:53:37;;;;;;;;;;;21.70;99.90;;;;;;5036280;28;19979;-74
2023/10/02 11:56:04;;;;;;;;;;;21.70;99.90;;;;;;5036286;28;19925;-74
2023/10/02 11:58:31;;;;;;;;;;;21.70;99.90;;;;;;5036269;28;19932;-75
2023/10/02 12:00:57;;;;;;;;;;;21.60;99.90;;;;;;5036589;28;20023;-75
2023/10/02 12:03:24;;;;;;;;;;;21.60;99.90;;;;;;5036694;28;19932;-76
2023/10/02 12:05:50;;;;;;;;;;;21.60;99.90;;;;;;5036171;28;19925;-73
2023/10/02 12:08:21;;;;;;;;;;;21.60;99.90;;;;;;5035863;28;20398;-72
2023/10/02 12:10:48;;;;;;;;;;;21.60;99.90;;;;;;5035708;28;19929;-72
2023/10/02 12:13:15;;;;;;;;;;;21.60;99.90;;;;;;5035694;28;20359;-72
2023/10/02 12:15:46;;;;;;;;;;;21.70;99.90;;;;;;5035910;28;20024;-72
2023/10/02 12:18:12;;;;;;;;;;;21.60;99.90;;;;;;5035878;28;19932;-75
2023/10/02 12:20:42;;;;;;;;;;;21.70;99.90;;;;;;5035796;28;19925;-74
2023/10/02 12:23:09;;;;;;;;;;;21.70;99.90;;;;;;5035807;28;19925;-74
2023/10/02 12:25:37;;;;;;;;;;;21.70;99.90;;;;;;5035786;28;19932;-74
2023/10/02 12:28:07;;;;;;;;;;;21.70;99.90;;;;;;5035717;28;19925;-74
2023/10/02 12:30:34;;;;;;;;;;;21.70;99.90;;;;;;5035608;28;19956;-73
2023/10/02 12:33:01;;;;;;;;;;;21.70;99.90;;;;;;5035568;28;19925;-73
2023/10/02 12:35:32;;;;;;;;;;;21.70;99.90;;;;;;5035597;28;19937;-74
2023/10/02 12:37:58;;;;;;;;;;;21.70;99.90;;;;;;5035813;28;19925;-74
2023/10/02 12:40:31;;;;;;;;;;;21.70;99.90;;;;;;5035283;28;19925;-74
2023/10/02 12:43:00;;;;;;;;;;;21.70;99.90;;;;;;5035185;28;19976;-74
2023/10/02 12:45:30;;;;;;;;;;;21.80;99.90;;;;;;5035386;28;19931;-74
2023/10/02 12:47:56;;;;;;;;;;;21.70;99.90;;;;;;5035361;28;20408;-75
2023/10/02 12:50:23;;;;;;;;;;;21.70;99.90;;;;;;5035748;28;19925;-75
2023/10/02 12:52:49;;;;;;;;;;;21.70;99.90;;;;;;5036065;28;19932;-75
2023/10/02 12:55:17;;;;;;;;;;;21.80;99.90;;;;;;5035474;28;19932;-74
2023/10/02 12:57:43;;;;;;;;;;;21.90;99.90;;;;;;5035139;28;19925;-74
2023/10/02 13:00:17;;;;;;;;;;;21.90;99.90;;;;;;5035058;28;19925;-74
2023/10/02 13:02:44;;;;;;;;;;;21.90;99.90;;;;;;5034934;28;19925;-74
2023/10/02 13:05:11;;;;;;;;;;;21.90;99.90;;;;;;5034911;28;19925;-74
2023/10/02 13:07:38;;;;;;;;;;;21.90;99.90;;;;;;5034450;28;20386;-75
2023/10/02 13:10:06;;;;;;;;;;;21.90;99.90;;;;;;5034259;28;20294;-74
2023/10/02 13:12:34;;;;;;;;;;;21.90;99.90;;;;;;5034549;28;19925;-75
2023/10/02 13:15:00;;;;;;;;;;;21.90;99.90;;;;;;5034723;28;19978;-75
2023/10/02 13:17:28;;;;;;;;;;;21.90;99.90;;;;;;5034710;28;19925;-74
2023/10/02 13:19:55;;;;;;;;;;;21.90;99.90;;;;;;5034595;28;19975;-74
2023/10/02 13:22:22;;;;;;;;;;;21.90;99.90;;;;;;5034157;28;19925;-75
2023/10/02 13:24:49;;;;;;;;;;;21.90;99.90;;;;;;5034302;28;19929;-75
2023/10/02 13:27:17;;;;;;;;;;;21.80;99.90;;;;;;5034504;28;19990;-75
2023/10/02 13:29:44;;;;;;;;;;;21.80;99.90;;;;;;5034466;28;19929;-75
2023/10/02 13:32:11;;;;;;;;;;;21.80;99.90;;;;;;5034271;28;19926;-75
2023/10/02 13:34:39;;;;;;;;;;;21.80;99.90;;;;;;5034400;28;19932;-74
2023/10/02 13:37:06;;;;;;;;;;;21.80;99.90;;;;;;5034404;28;19926;-74
2023/10/02 13:39:36;;;;;;;;;;;21.80;99.90;;;;;;5033993;28;20294;-76
2023/10/02 13:42:02;;;;;;;;;;;21.80;99.90;;;;;;5033937;28;20291;-74
2023/10/02 13:44:30;;;;;;;;;;;21.80;99.90;;;;;;5034247;28;19929;-74
2023/10/02 13:46:56;;;;;;;;;;;21.70;99.90;;;;;;5034182;28;19932;-73
2023/10/02 13:49:23;;;;;;;;;;;21.80;99.90;;;;;;5034101;28;20310;-73
2023/10/02 13:51:51;;;;;;;;;;;21.80;99.90;;;;;;5034104;28;19955;-73
2023/10/02 13:54:18;;;;;;;;;;;21.80;99.90;;;;;;5034040;28;19925;-74
2023/10/02 13:56:45;;;;;;;;;;;21.80;99.90;;;;;;5033915;28;19931;-73
2023/10/02 13:59:12;;;;;;;;;;;21.80;99.90;;;;;;5034084;28;19991;-73
2023/10/02 14:01:38;;;;;;;;;;;21.80;99.90;;;;;;5034093;28;19929;-72
2023/10/02 14:04:06;;;;;;;;;;;21.80;99.90;;;;;;5034029;28;19932;-72
2023/10/02 14:06:33;;;;;;;;;;;21.70;99.90;;;;;;5034049;28;19932;-72
2023/10/02 14:09:01;;;;;;;;;;;21.70;99.90;;;;;;5033695;28;19932;-73
2023/10/02 14:11:28;;;;;;;;;;;21.70;99.90;;;;;;5033961;28;19925;-74
2023/10/02 14:13:56;;;;;;;;;;;21.70;99.90;;;;;;5033892;28;19936;-73
2023/10/02 14:16:24;;;;;;;;;;;21.70;99.90;;;;;;5033855;28;19925;-73
2023/10/02 14:18:53;;;;;;;;;;;21.60;99.90;;;;;;5033868;28;19931;-75
2023/10/02 14:21:21;;;;;;;;;;;21.50;99.90;;;;;;5033813;28;20375;-75
2023/10/02 14:23:48;;;;;;;;;;;21.50;99.90;;;;;;5034120;28;20295;-75
2023/10/02 14:26:16;;;;;;;;;;;21.50;99.90;;;;;;5035405;28;20282;-74
2023/10/02 14:28:44;;;;;;;;;;;21.40;99.90;;;;;;5034602;28;19931;-74
2023/10/02 14:31:10;;;;;;;;;;;21.40;99.90;;;;;;5034406;28;19972;-74
2023/10/02 14:33:40;;;;;;;;;;;21.30;99.90;;;;;;5034880;28;20020;-74
2023/10/02 14:36:07;;;;;;;;;;;21.30;99.90;;;;;;5038432;28;19940;-75
2023/10/02 14:38:35;;;;;;;;;;;21.20;99.90;;;;;;5039542;28;19925;-75
2023/10/02 14:41:02;;;;;;;;;;;21.10;99.90;;;;;;5038341;28;19975;-75
2023/10/02 14:43:31;;;;;;;;;;;21.00;99.90;;;;;;5038769;28;19936;-75
2023/10/02 14:45:58;;;;;;;;;;;20.90;99.90;;;;;;5038760;28;19925;-73
2023/10/02 14:48:25;;;;;;;;;;;20.90;99.90;;;;;;5038215;28;20391;-75
2023/10/02 14:50:54;;;;;;;;;;;20.80;99.90;;;;;;5038537;28;20021;-76
2023/10/02 14:53:21;;;;;;;;;;;20.70;99.90;;;;;;5038729;28;19980;-74
2023/10/02 14:55:49;;;;;;;;;;;20.60;99.90;;;;;;5038226;28;19925;-74
2023/10/02 14:58:16;;;;;;;;;;;20.50;99.90;;;;;;5037930;28;20321;-75
2023/10/02 15:00:44;;;;;;;;;;;20.40;99.90;;;;;;5038239;28;20253;-74
2023/10/02 15:03:11;;;;;;;;;;;20.40;99.90;;;;;;5038142;28;20378;-73
2023/10/02 15:05:38;;;;;;;;;;;20.30;99.90;;;;;;5038638;28;19932;-75
2023/10/02 15:08:08;;;;;;;;;;;20.10;99.90;;;;;;5037824;28;19968;-75
2023/10/02 15:10:36;;;;;;;;;;;20.10;99.90;;;;;;5038363;28;19984;-74
2023/10/02 15:13:02;;;;;;;;;;;20.00;99.90;;;;;;5038156;28;19932;-75
2023/10/02 15:15:29;;;;;;;;;;;19.90;99.90;;;;;;5038401;28;20409;-74
2023/10/02 15:17:58;;;;;;;;;;;19.80;99.90;;;;;;5038211;28;19926;-73
2023/10/02 15:20:26;;;;;;;;;;;19.70;99.90;;;;;;5038376;28;20267;-74
2023/10/02 15:22:53;;;;;;;;;;;19.70;99.90;;;;;;5039183;28;20305;-74
2023/10/02 15:25:21;;;;;;;;;;;19.60;99.90;;;;;;5037098;28;19983;-74
2023/10/02 15:27:49;;;;;;;;;;;19.50;99.90;;;;;;5036654;28;20294;-74
2023/10/02 15:30:16;;;;;;;;;;;19.40;99.90;;;;;;5036611;28;19925;-74
2023/10/02 15:32:44;;;;;;;;;;;19.40;99.90;;;;;;5036785;28;19932;-74
2023/10/02 15:35:15;;;;;;;;;;;19.30;99.90;;;;;;5036294;28;19956;-74
2023/10/02 15:37:43;;;;;;;;;;;19.20;99.90;;;;;;5036687;28;19975;-74
2023/10/02 15:40:12;;;;;;;;;;;19.10;99.90;;;;;;5036510;28;19968;-71
2023/10/02 15:42:39;;;;;;;;;;;19.00;99.90;;;;;;5036456;28;19926;-71
2023/10/02 15:45:13;;;;;;;;;;;18.90;99.90;;;;;;5035693;28;20375;-72
2023/10/02 15:47:41;;;;;;;;;;;18.80;99.90;;;;;;5036489;28;19987;-71
2023/10/02 15:50:09;;;;;;;;;;;18.80;99.90;;;;;;5036352;28;19925;-74
2023/10/02 15:52:37;;;;;;;;;;;18.60;99.90;;;;;;5036509;28;19925;-75
2023/10/02 15:55:04;;;;;;;;;;;18.60;99.90;;;;;;5036518;28;19925;-74
2023/10/02 15:57:32;;;;;;;;;;;18.50;99.90;;;;;;5036195;28;19947;-74
2023/10/02 15:59:59;;;;;;;;;;;18.40;99.90;;;;;;5036180;28;19932;-72
2023/10/02 16:02:25;;;;;;;;;;;18.40;99.90;;;;;;5036272;28;19932;-72
2023/10/02 16:04:53;;;;;;;;;;;18.30;99.90;;;;;;5036232;28;19929;-72
2023/10/02 16:07:19;;;;;;;;;;;18.20;99.90;;;;;;5036471;28;19975;-71
2023/10/02 16:09:47;;;;;;;;;;;18.10;99.90;;;;;;5035986;28;19936;-71
2023/10/02 16:12:14;;;;;;;;;;;18.10;99.90;;;;;;5037378;28;20378;-71
2023/10/02 16:14:41;;;;;;;;;;;17.90;99.90;;;;;;5036154;28;19932;-71
2023/10/02 16:17:07;;;;;;;;;;;17.90;99.90;;;;;;5036049;28;20035;-71
2023/10/02 16:19:34;;;;;;;;;;;17.80;99.90;;;;;;5036027;28;19925;-72
2023/10/02 16:22:01;;;;;;;;;;;17.80;99.90;;;;;;5035892;28;19929;-73
2023/10/02 16:24:28;;;;;;;;;;;17.70;99.90;;;;;;5036574;28;19932;-72
2023/10/02 16:26:56;;;;;;;;;;;17.60;99.90;;;;;;5035937;28;19928;-72
2023/10/02 16:29:23;;;;;;;;;;;17.60;99.90;;;;;;5036080;28;19925;-73
2023/10/02 16:31:49;;;;;;;;;;;17.50;99.90;;;;;;5035922;28;19925;-73
2023/10/02 16:34:16;;;;;;;;;;;17.40;99.90;;;;;;5036042;28;19925;-73
2023/10/02 16:36:42;;;;;;;;;;;17.30;99.90;;;;;;5036039;28;20349;-74
2023/10/02 16:39:09;;;;;;;;;;;17.20;99.90;;;;;;5036596;28;19948;-73
2023/10/02 16:41:36;;;;;;;;;;;17.20;99.90;;;;;;5035660;28;19947;-74
2023/10/02 16:44:04;;;;;;;;;;;17.10;99.90;;;;;;5036012;28;19979;-74
2023/10/02 16:46:31;;;;;;;;;;;17.00;99.90;;;;;;5035631;28;19929;-74
2023/10/02 16:48:58;;;;;;;;;;;16.90;99.90;;;;;;5035395;28;19933;-73
2023/10/02 16:51:24;;;;;;;;;;;16.80;99.90;;;;;;5035340;28;19948;-73
2023/10/02 16:53:51;;;;;;;;;;;16.70;99.90;;;;;;5035484;28;19929;-73
2023/10/02 16:56:18;;;;;;;;;;;16.70;99.90;;;;;;5035636;28;19925;-73
2023/10/02 16:58:46;;;;;;;;;;;16.60;99.90;;;;;;5036599;28;20020;-73
2023/10/02 17:01:17;;;;;;;;;;;16.60;99.90;;;;;;5037822;28;20337;-73
2023/10/02 17:03:45;;;;;;;;;;;16.50;99.90;;;;;;5036275;28;20378;-74
2023/10/02 17:06:11;;;;;;;;;;;16.40;99.90;;;;;;5037097;28;19929;-76
2023/10/02 17:08:39;;;;;;;;;;;16.30;99.90;;;;;;5036103;28;19924;-76
2023/10/02 17:11:16;;;;;;;;;;;16.30;99.90;;;;;;5034791;28;19925;-76
2023/10/02 17:13:43;;;;;;;;;;;16.20;99.90;;;;;;5036737;28;19925;-75
2023/10/02 17:16:11;;;;;;;;;;;16.10;99.90;;;;;;5038086;28;19931;-76
2023/10/02 17:18:39;;;;;;;;;;;16.00;99.90;;;;;;5037126;28;19925;-75
2023/10/02 17:21:07;;;;;;;;;;;16.00;99.90;;;;;;5035200;28;19948;-75
2023/10/02 17:23:34;;;;;;;;;;;15.90;99.90;;;;;;5036105;28;19979;-75
2023/10/02 17:26:05;;;;;;;;;;;15.80;99.90;;;;;;5036358;28;19925;-75
2023/10/02 17:28:32;;;;;;;;;;;15.70;99.90;;;;;;5036830;28;19925;-75
2023/10/02 17:30:59;;;;;;;;;;;15.70;99.90;;;;;;5036288;28;19925;-74
2023/10/02 17:33:27;;;;;;;;;;;15.60;99.90;;;;;;5038506;28;19948;-75
2023/10/02 17:35:55;;;;;;;;;;;15.50;99.90;;;;;;5040581;28;19925;-75
2023/10/02 17:38:22;;;;;;;;;;;15.50;99.90;;;;;;5040520;28;19925;-75
2023/10/02 17:40:49;;;;;;;;;;;15.40;99.90;;;;;;5040106;28;20300;-75
2023/10/02 17:43:16;;;;;;;;;;;15.30;99.90;;;;;;5035939;28;19925;-76
2023/10/02 17:45:42;;;;;;;;;;;15.30;99.90;;;;;;5035080;28;19975;-75
2023/10/02 17:48:10;;;;;;;;;;;15.20;99.90;;;;;;5034602;28;20386;-73
2023/10/02 17:50:37;;;;;;;;;;;15.10;99.90;;;;;;5073562;23;19929;-75
2023/10/02 17:53:05;;;;;;;;;;;15.10;99.90;;;;;;5034299;28;19932;-72
2023/10/02 17:55:31;;;;;;;;;;;15.00;99.90;;;;;;5034152;28;19925;-72
2023/10/02 17:57:58;;;;;;;;;;;15.00;99.90;;;;;;5034107;28;19932;-72
2023/10/02 18:00:25;;;;;;;;;;;14.90;99.90;;;;;;5034294;28;19925;-73
2023/10/02 18:02:51;;;;;;;;;;;14.80;99.90;;;;;;5034502;28;19940;-73
2023/10/02 18:05:18;;;;;;;;;;;14.80;99.90;;;;;;5034247;28;19932;-75
2023/10/02 18:07:45;;;;;;;;;;;14.70;99.90;;;;;;5033979;28;19925;-72
2023/10/02 18:10:15;;;;;;;;;;;14.70;99.90;;;;;;5034201;28;19929;-69
2023/10/02 18:12:41;;;;;;;;;;;14.60;99.90;;;;;;5033919;28;19932;-70
2023/10/02 18:15:09;;;;;;;;;;;14.50;99.90;;;;;;5033946;28;19948;-70
2023/10/02 18:17:36;;;;;;;;;;;14.40;99.90;;;;;;5033904;28;19926;-70
2023/10/02 18:20:04;;;;;;;;;;;14.40;99.90;;;;;;5033913;28;19971;-69
2023/10/02 18:22:31;;;;;;;;;;;14.40;99.90;;;;;;5033950;28;19925;-70
2023/10/02 18:25:00;;;;;;;;;;;14.30;99.90;;;;;;5033902;28;19925;-70
2023/10/02 18:27:28;;;;;;;;;;;14.20;99.90;;;;;;5033733;28;19982;-70
2023/10/02 18:29:55;;;;;;;;;;;14.20;99.90;;;;;;5034414;28;19932;-77
2023/10/02 18:32:21;;;;;;;;;;;14.10;99.90;;;;;;5034528;28;19925;-75
2023/10/02 18:34:48;;;;;;;;;;;14.00;99.90;;;;;;5033725;28;19925;-75
2023/10/02 18:37:15;;;;;;;;;;;14.00;99.90;;;;;;5033709;28;19926;-75
2023/10/02 18:39:41;;;;;;;;;;;13.90;99.90;;;;;;5033755;28;19950;-75
2023/10/02 18:42:08;;;;;;;;;;;13.90;99.90;;;;;;5034141;28;20016;-74
2023/10/02 18:44:36;;;;;;;;;;;13.80;99.90;;;;;;5033616;28;19925;-74
2023/10/02 18:47:03;;;;;;;;;;;13.80;99.90;;;;;;5034501;28;19973;-78
2023/10/02 18:49:32;;;;;;;;;;;13.70;99.90;;;;;;5033973;28;19925;-77
2023/10/02 18:52:01;;;;;;;;;;;13.70;99.90;;;;;;5033606;28;19925;-77
2023/10/02 18:54:27;;;;;;;;;;;13.60;99.90;;;;;;5035772;28;19936;-78
2023/10/02 18:56:54;;;;;;;;;;;13.60;99.90;;;;;;5034752;28;19936;-78
2023/10/02 18:59:20;;;;;;;;;;;13.50;99.90;;;;;;5035737;28;19925;-78
2023/10/02 19:01:48;;;;;;;;;;;13.50;99.90;;;;;;5034099;28;19936;-77
2023/10/02 19:04:15;;;;;;;;;;;13.50;99.90;;;;;;5034426;28;19931;-78
2023/10/02 19:06:41;;;;;;;;;;;13.40;99.90;;;;;;5036308;28;20390;-79
2023/10/02 19:09:11;;;;;;;;;;;13.30;99.90;;;;;;5036839;28;19925;-78
2023/10/02 19:11:37;;;;;;;;;;;13.30;99.90;;;;;;5035871;28;19960;-78
2023/10/02 19:14:04;;;;;;;;;;;13.30;99.90;;;;;;5036129;28;19925;-78
2023/10/02 19:16:31;;;;;;;;;;;13.30;99.90;;;;;;5035744;28;19926;-78
2023/10/02 19:18:58;;;;;;;;;;;13.20;99.90;;;;;;5036939;28;19936;-78
2023/10/02 19:21:27;;;;;;;;;;;13.20;99.90;;;;;;5038835;28;20387;-78
2023/10/02 19:23:54;;;;;;;;;;;13.10;99.90;;;;;;5041064;28;19931;-78
2023/10/02 19:26:21;;;;;;;;;;;13.10;99.90;;;;;;5039960;28;19929;-78
2023/10/02 19:28:47;;;;;;;;;;;13.10;99.90;;;;;;5041148;28;19932;-78
2023/10/02 19:31:16;;;;;;;;;;;13.00;99.90;;;;;;5040010;28;19932;-78
2023/10/02 19:33:43;;;;;;;;;;;;;;;;;;5039363;28;19971;-78
2023/10/02 19:36:09;;;;;;;;;;;;;;;;;;5039346;28;19948;-77
2023/10/02 19:38:36;;;;;;;;;;;;;;;;;;5037155;28;20382;-76
2023/10/02 19:41:03;;;;;;;;;;;;;;;;;;5037073;28;19926;-76
2023/10/02 19:43:30;;;;;;;;;;;;;;;;;;5037540;28;19932;-76
2023/10/02 19:45:57;;;;;;;;;;;;;;;;;;5037472;28;19929;-76
2023/10/02 19:48:24;;;;;;;;;;;;;;;;;;5036951;28;19925;-76
2023/10/02 19:50:53;;;;;;;;;;;;;;;;;;5037538;28;20004;-76
2023/10/02 19:53:20;;;;;;;;;;;;;;;;;;5038571;28;19925;-76